Time,TemperatureF,DewpointF,PressureIn,WindDirection,WindDirectionDegrees,WindSpeedMPH,WindSpeedGustMPH,Humidity,HourlyPrecipIn,Conditions,Clouds,dailyrainin,SoftwareType,DateUTC
2013-04-27 00:03:00,39.9,24.1,30.03,West,261,0.0,4.0,53,0.00,,,0.00,Wunderground v.1.15,2013-04-27 06:03:00,
2013-04-27 00:08:00,39.8,22.2,30.04,West,261,0.0,4.0,49,0.00,,,0.00,Wunderground v.1.15,2013-04-27 06:08:00,
2013-04-27 00:13:00,39.5,21.9,30.04,West,261,0.0,1.0,49,0.00,,,0.00,Wunderground v.1.15,2013-04-27 06:13:00,
2013-04-27 00:18:00,38.9,20.9,30.04,West,261,0.0,1.0,48,0.00,,,0.00,Wunderground v.1.15,2013-04-27 06:18:00,
2013-04-27 00:23:00,38.5,21.0,30.04,West,261,0.0,0.0,49,0.00,,,0.00,Wunderground v.1.15,2013-04-27 06:23:00,
2013-04-27 00:28:00,38.2,21.6,30.04,West,261,0.0,0.0,51,0.00,,,0.00,Wunderground v.1.15,2013-04-27 06:28:00,
2013-04-27 00:33:00,37.9,21.4,30.04,West,261,0.0,0.0,51,0.00,,,0.00,Wunderground v.1.15,2013-04-27 06:33:00,
2013-04-27 00:38:00,37.6,21.5,30.04,West,261,0.0,0.0,52,0.00,,,0.00,Wunderground v.1.15,2013-04-27 06:38:00,
2013-04-27 00:43:00,37.6,22.0,30.04,West,261,0.0,0.0,53,0.00,,,0.00,Wunderground v.1.15,2013-04-27 06:43:00,
2013-04-27 00:48:00,37.6,22.0,30.04,West,261,0.0,0.0,53,0.00,,,0.00,Wunderground v.1.15,2013-04-27 06:48:00,
2013-04-27 00:53:00,37.5,21.9,30.04,West,261,0.0,0.0,53,0.00,,,0.00,Wunderground v.1.15,2013-04-27 06:53:00,
2013-04-27 00:58:00,37.0,21.4,30.04,West,261,0.0,0.0,53,0.00,,,0.00,Wunderground v.1.15,2013-04-27 06:58:00,
2013-04-27 01:03:00,36.9,21.3,30.05,West,261,0.0,0.0,53,0.00,,,0.00,Wunderground v.1.15,2013-04-27 07:03:00,
2013-04-27 01:08:00,36.8,21.3,30.05,West,261,0.0,0.0,53,0.00,,,0.00,Wunderground v.1.15,2013-04-27 07:08:00,
2013-04-27 01:13:00,36.5,21.4,30.05,West,261,0.0,0.0,54,0.00,,,0.00,Wunderground v.1.15,2013-04-27 07:13:00,
2013-04-27 01:18:00,36.2,21.1,30.04,West,261,0.0,0.0,54,0.00,,,0.00,Wunderground v.1.15,2013-04-27 07:18:00,
2013-04-27 01:23:00,36.6,21.5,30.04,West,261,0.0,0.0,54,0.00,,,0.00,Wunderground v.1.15,2013-04-27 07:23:00,
2013-04-27 01:28:00,36.5,22.7,30.04,West,266,0.0,6.0,57,0.00,,,0.00,Wunderground v.1.15,2013-04-27 07:28:00,
2013-04-27 01:33:00,37.0,23.6,30.05,West,266,0.0,1.0,58,0.00,,,0.00,Wunderground v.1.15,2013-04-27 07:33:00,
2013-04-27 01:38:00,36.9,23.1,30.05,West,266,0.0,1.0,57,0.00,,,0.00,Wunderground v.1.15,2013-04-27 07:38:00,
2013-04-27 01:43:00,36.3,22.5,30.05,West,266,0.0,0.0,57,0.00,,,0.00,Wunderground v.1.15,2013-04-27 07:43:00,
2013-04-27 01:48:00,35.6,21.9,30.06,West,266,0.0,4.0,57,0.00,,,0.00,Wunderground v.1.15,2013-04-27 07:48:00,
2013-04-27 01:53:00,36.0,22.6,30.06,West,266,0.0,1.0,58,0.00,,,0.00,Wunderground v.1.15,2013-04-27 07:53:00,
2013-04-27 01:58:00,36.6,21.9,30.06,West,266,0.0,1.0,55,0.00,,,0.00,Wunderground v.1.15,2013-04-27 07:58:00,
2013-04-27 02:03:00,35.9,21.7,30.06,West,266,0.0,0.0,56,0.00,,,0.00,Wunderground v.1.15,2013-04-27 08:03:00,
2013-04-27 02:08:00,35.6,21.9,30.06,West,266,1.0,2.0,57,0.00,,,0.00,Wunderground v.1.15,2013-04-27 08:08:00,
2013-04-27 02:13:00,35.3,21.2,30.06,West,266,0.0,0.0,56,0.00,,,0.00,Wunderground v.1.15,2013-04-27 08:13:00,
2013-04-27 02:18:00,34.9,21.6,30.06,West,266,0.0,0.0,58,0.00,,,0.00,Wunderground v.1.15,2013-04-27 08:18:00,
2013-04-27 02:23:00,34.7,21.8,30.06,West,266,0.0,0.0,59,0.00,,,0.00,Wunderground v.1.15,2013-04-27 08:23:00,
2013-04-27 02:28:00,34.3,21.4,30.06,West,266,0.0,0.0,59,0.00,,,0.00,Wunderground v.1.15,2013-04-27 08:28:00,
2013-04-27 02:33:00,34.1,22.0,30.06,West,266,0.0,0.0,61,0.00,,,0.00,Wunderground v.1.15,2013-04-27 08:33:00,
2013-04-27 02:38:00,33.8,21.4,30.06,West,266,1.0,2.0,60,0.00,,,0.00,Wunderground v.1.15,2013-04-27 08:38:00,
2013-04-27 02:43:00,32.9,20.9,30.06,West,266,1.0,3.0,61,0.00,,,0.00,Wunderground v.1.15,2013-04-27 08:43:00,
2013-04-27 02:48:00,32.2,21.0,30.06,West,266,3.0,3.0,63,0.00,,,0.00,Wunderground v.1.15,2013-04-27 08:48:00,
2013-04-27 02:53:00,32.8,22.0,30.06,West,266,3.0,4.0,64,0.00,,,0.00,Wunderground v.1.15,2013-04-27 08:53:00,
2013-04-27 02:58:00,34.1,22.0,30.06,West,265,1.0,4.0,61,0.00,,,0.00,Wunderground v.1.15,2013-04-27 08:58:00,
2013-04-27 03:03:00,34.9,21.6,30.04,West,265,3.0,4.0,58,0.00,,,0.00,Wunderground v.1.15,2013-04-27 09:03:00,
2013-04-27 03:08:00,36.8,20.3,30.04,West,263,3.0,4.0,51,0.00,,,0.00,Wunderground v.1.15,2013-04-27 09:08:00,
2013-04-27 03:13:00,39.1,21.0,30.04,South,184,1.0,3.0,48,0.00,,,0.00,Wunderground v.1.15,2013-04-27 09:13:00,
2013-04-27 03:18:00,38.9,20.9,30.02,South,184,0.0,4.0,48,0.00,,,0.00,Wunderground v.1.15,2013-04-27 09:18:00,
2013-04-27 03:23:00,39.5,20.9,30.02,South,184,0.0,2.0,47,0.00,,,0.00,Wunderground v.1.15,2013-04-27 09:23:00,
2013-04-27 03:28:00,39.3,24.9,30.02,SSW,196,1.0,4.0,56,0.00,,,0.00,Wunderground v.1.15,2013-04-27 09:28:00,
2013-04-27 03:33:00,38.9,24.9,30.04,NW,311,7.0,10.0,57,0.00,,,0.00,Wunderground v.1.15,2013-04-27 09:33:00,
2013-04-27 03:38:00,39.2,24.8,30.04,WNW,297,5.0,12.0,56,0.00,,,0.00,Wunderground v.1.15,2013-04-27 09:38:00,
2013-04-27 03:43:00,40.3,25.0,30.04,NW,318,1.0,6.0,54,0.00,,,0.00,Wunderground v.1.15,2013-04-27 09:43:00,
2013-04-27 03:48:00,41.5,23.7,30.05,NNW,331,1.0,6.0,49,0.00,,,0.00,Wunderground v.1.15,2013-04-27 09:48:00,
2013-04-27 03:53:00,42.2,22.9,30.05,NNW,331,0.0,2.0,46,0.00,,,0.00,Wunderground v.1.15,2013-04-27 09:53:00,
2013-04-27 03:58:00,41.8,23.0,30.05,NNW,331,0.0,2.0,47,0.00,,,0.00,Wunderground v.1.15,2013-04-27 09:58:00,
2013-04-27 04:03:00,40.5,22.3,30.05,NNW,331,0.0,0.0,48,0.00,,,0.00,Wunderground v.1.15,2013-04-27 10:03:00,
2013-04-27 04:08:00,38.8,21.7,30.05,NNW,331,0.0,0.0,50,0.00,,,0.00,Wunderground v.1.15,2013-04-27 10:08:00,
2013-04-27 04:13:00,38.3,22.6,30.05,NNW,331,0.0,2.0,53,0.00,,,0.00,Wunderground v.1.15,2013-04-27 10:13:00,
2013-04-27 04:18:00,38.3,22.2,30.06,NNW,331,0.0,3.0,52,0.00,,,0.00,Wunderground v.1.15,2013-04-27 10:18:00,
2013-04-27 04:23:00,38.6,22.5,30.06,NNW,330,1.0,3.0,52,0.00,,,0.00,Wunderground v.1.15,2013-04-27 10:23:00,
2013-04-27 04:28:00,38.6,22.9,30.06,NNW,329,0.0,3.0,53,0.00,,,0.00,Wunderground v.1.15,2013-04-27 10:28:00,
2013-04-27 04:33:00,38.5,22.4,30.06,NNW,329,1.0,3.0,52,0.00,,,0.00,Wunderground v.1.15,2013-04-27 10:33:00,
2013-04-27 04:38:00,38.5,22.4,30.06,NW,322,1.0,3.0,52,0.00,,,0.00,Wunderground v.1.15,2013-04-27 10:38:00,
2013-04-27 04:43:00,40.9,21.2,30.06,SE,136,7.0,7.0,45,0.00,,,0.00,Wunderground v.1.15,2013-04-27 10:43:00,
2013-04-27 04:48:00,45.2,18.5,30.02,ESE,119,4.0,7.0,34,0.00,,,0.00,Wunderground v.1.15,2013-04-27 10:48:00,
2013-04-27 04:53:00,47.0,17.1,30.02,SE,131,5.0,7.0,30,0.00,,,0.00,Wunderground v.1.15,2013-04-27 10:53:00,
2013-04-27 04:58:00,49.8,16.2,30.02,SE,143,6.0,9.0,26,0.00,,,0.00,Wunderground v.1.15,2013-04-27 10:58:00,
2013-04-27 05:03:00,50.5,15.9,29.99,SE,129,1.0,7.0,25,0.00,,,0.00,Wunderground v.1.15,2013-04-27 11:03:00,
2013-04-27 05:08:00,47.9,17.9,29.99,SE,129,2.0,7.0,30,0.00,,,0.00,Wunderground v.1.15,2013-04-27 11:08:00,
2013-04-27 05:13:00,47.1,15.6,29.99,ESE,108,3.0,5.0,28,0.00,,,0.00,Wunderground v.1.15,2013-04-27 11:13:00,
2013-04-27 05:18:00,48.2,14.9,30.01,East,86,2.0,5.0,26,0.00,,,0.00,Wunderground v.1.15,2013-04-27 11:18:00,
2013-04-27 05:23:00,49.1,15.6,30.01,ESE,105,1.0,5.0,26,0.00,,,0.00,Wunderground v.1.15,2013-04-27 11:23:00,
2013-04-27 05:28:00,49.8,16.2,30.01,East,92,6.0,9.0,26,0.00,,,0.00,Wunderground v.1.15,2013-04-27 11:28:00,
2013-04-27 05:33:00,50.7,16.1,30.00,ENE,78,4.0,10.0,25,0.00,,,0.00,Wunderground v.1.15,2013-04-27 11:33:00,
2013-04-27 05:38:00,51.1,16.4,30.00,East,92,6.0,11.0,25,0.00,,,0.00,Wunderground v.1.15,2013-04-27 11:38:00,
2013-04-27 05:44:00,51.6,15.9,30.00,SE,139,9.0,9.0,24,0.00,,,0.00,Wunderground v.1.15,2013-04-27 11:44:00,
2013-04-27 05:49:00,50.4,16.8,30.00,SE,140,3.0,10.0,26,0.00,,,0.00,Wunderground v.1.15,2013-04-27 11:49:00,
2013-04-27 05:54:00,49.6,16.9,30.00,SE,140,3.0,6.0,27,0.00,,,0.00,Wunderground v.1.15,2013-04-27 11:54:00,
2013-04-27 05:59:00,48.6,16.1,30.00,SE,140,2.0,6.0,27,0.00,,,0.00,Wunderground v.1.15,2013-04-27 11:59:00,
2013-04-27 06:04:00,48.2,16.6,30.01,SSE,153,4.0,7.0,28,0.00,,,0.00,Wunderground v.1.15,2013-04-27 12:04:00,
2013-04-27 06:09:00,49.8,15.3,30.01,SE,132,2.0,8.0,25,0.00,,,0.00,Wunderground v.1.15,2013-04-27 12:09:00,
2013-04-27 06:14:00,49.5,16.0,30.01,SE,132,0.0,3.0,26,0.00,,,0.00,Wunderground v.1.15,2013-04-27 12:14:00,
2013-04-27 06:19:00,48.0,16.4,30.01,SE,132,1.0,3.0,28,0.00,,,0.00,Wunderground v.1.15,2013-04-27 12:19:00,
2013-04-27 06:24:00,45.7,17.5,30.01,SE,132,0.0,1.0,32,0.00,,,0.00,Wunderground v.1.15,2013-04-27 12:24:00,
2013-04-27 06:29:00,44.1,18.2,30.01,SE,132,0.0,1.0,35,0.00,,,0.00,Wunderground v.1.15,2013-04-27 12:29:00,
2013-04-27 06:34:00,42.6,21.1,30.04,SE,132,0.0,1.0,42,0.00,,,0.00,Wunderground v.1.15,2013-04-27 12:34:00,
2013-04-27 06:39:00,42.1,18.3,30.04,ESE,102,2.0,3.0,38,0.00,,,0.00,Wunderground v.1.15,2013-04-27 12:39:00,
2013-04-27 06:44:00,43.3,19.4,30.04,ENE,78,0.0,5.0,38,0.00,,,0.00,Wunderground v.1.15,2013-04-27 12:44:00,
2013-04-27 06:49:00,44.3,20.3,30.05,ENE,77,0.0,5.0,38,0.00,,,0.00,Wunderground v.1.15,2013-04-27 12:49:00,
2013-04-27 06:54:00,44.6,20.5,30.05,East,82,1.0,2.0,38,0.00,,,0.00,Wunderground v.1.15,2013-04-27 12:54:00,
2013-04-27 06:59:00,44.8,20.1,30.05,SSW,213,0.0,6.0,37,0.00,,,0.00,Wunderground v.1.15,2013-04-27 12:59:00,
2013-04-27 07:04:00,44.9,20.2,30.05,SSW,213,0.0,1.0,37,0.00,,,0.00,Wunderground v.1.15,2013-04-27 13:04:00,
2013-04-27 07:09:00,45.4,19.3,30.05,SSW,213,0.0,1.0,35,0.00,,,0.00,Wunderground v.1.15,2013-04-27 13:09:00,
2013-04-27 07:14:00,46.2,20.0,30.05,SSW,213,0.0,3.0,35,0.00,,,0.00,Wunderground v.1.15,2013-04-27 13:14:00,
2013-04-27 07:19:00,46.8,19.2,30.13,SSW,213,0.0,3.0,33,0.00,,,0.00,Wunderground v.1.15,2013-04-27 13:19:00,
2013-04-27 07:24:00,47.4,19.7,30.13,SSW,213,0.0,0.0,33,0.00,,,0.00,Wunderground v.1.15,2013-04-27 13:24:00,
2013-04-27 07:29:00,47.4,19.7,30.13,SSW,213,1.0,2.0,33,0.00,,,0.00,Wunderground v.1.15,2013-04-27 13:29:00,
2013-04-27 07:34:00,47.0,19.3,30.14,SSW,202,0.0,2.0,33,0.00,,,0.00,Wunderground v.1.15,2013-04-27 13:34:00,
2013-04-27 07:39:00,47.0,20.0,30.14,SSW,202,1.0,2.0,34,0.00,,,0.00,Wunderground v.1.15,2013-04-27 13:39:00,
2013-04-27 07:44:00,47.1,19.4,30.14,SSW,202,1.0,1.0,33,0.00,,,0.00,Wunderground v.1.15,2013-04-27 13:44:00,
2013-04-27 07:49:00,47.4,20.4,30.14,South,190,2.0,4.0,34,0.00,,,0.00,Wunderground v.1.15,2013-04-27 13:49:00,
2013-04-27 07:54:00,47.7,18.5,30.14,SE,129,3.0,4.0,31,0.00,,,0.00,Wunderground v.1.15,2013-04-27 13:54:00,
2013-04-27 07:59:00,48.3,18.3,30.14,SE,128,3.0,9.0,30,0.00,,,0.00,Wunderground v.1.15,2013-04-27 13:59:00,
2013-04-27 08:04:00,48.8,20.2,30.13,SSE,151,5.0,5.0,32,0.00,,,0.00,Wunderground v.1.15,2013-04-27 14:04:00,
2013-04-27 08:09:00,49.4,19.2,30.13,SE,140,4.0,8.0,30,0.00,,,0.00,Wunderground v.1.15,2013-04-27 14:09:00,
2013-04-27 08:14:00,50.2,18.3,30.13,SE,140,6.0,6.0,28,0.00,,,0.00,Wunderground v.1.15,2013-04-27 14:14:00,
2013-04-27 08:19:00,50.8,18.8,30.11,SSE,153,5.0,7.0,28,0.00,,,0.00,Wunderground v.1.15,2013-04-27 14:19:00,
2013-04-27 08:24:00,51.4,18.5,30.11,SSE,151,2.0,7.0,27,0.00,,,0.00,Wunderground v.1.15,2013-04-27 14:24:00,
2013-04-27 08:29:00,52.0,19.0,30.11,SE,140,4.0,7.0,27,0.00,,,0.00,Wunderground v.1.15,2013-04-27 14:29:00,
2013-04-27 08:34:00,52.8,18.8,30.10,SE,135,6.0,9.0,26,0.00,,,0.00,Wunderground v.1.15,2013-04-27 14:34:00,
2013-04-27 08:39:00,53.2,19.2,30.10,SE,125,0.0,11.0,26,0.00,,,0.00,Wunderground v.1.15,2013-04-27 14:39:00,
2013-04-27 08:44:00,53.8,19.7,30.10,SE,126,5.0,10.0,26,0.00,,,0.00,Wunderground v.1.15,2013-04-27 14:44:00,
2013-04-27 08:49:00,54.5,20.3,30.09,ESE,111,1.0,10.0,26,0.00,,,0.00,Wunderground v.1.15,2013-04-27 14:49:00,
2013-04-27 08:54:00,55.1,20.8,30.09,East,97,0.0,3.0,26,0.00,,,0.00,Wunderground v.1.15,2013-04-27 14:54:00,
2013-04-27 08:59:00,55.7,20.4,30.09,East,96,0.0,3.0,25,0.00,,,0.00,Wunderground v.1.15,2013-04-27 14:59:00,
2013-04-27 09:04:00,56.3,20.9,30.08,ENE,74,3.0,6.0,25,0.00,,,0.00,Wunderground v.1.15,2013-04-27 15:04:00,
2013-04-27 09:09:00,56.5,20.1,30.08,ENE,66,4.0,6.0,24,0.00,,,0.00,Wunderground v.1.15,2013-04-27 15:09:00,
2013-04-27 09:14:00,56.6,20.2,30.08,East,89,3.0,6.0,24,0.00,,,0.00,Wunderground v.1.15,2013-04-27 15:14:00,
2013-04-27 09:19:00,56.9,19.4,30.15,East,87,2.0,6.0,23,0.00,,,0.00,Wunderground v.1.15,2013-04-27 15:19:00,
2013-04-27 09:24:00,57.3,19.8,30.15,ESE,106,3.0,5.0,23,0.00,,,0.00,Wunderground v.1.15,2013-04-27 15:24:00,
2013-04-27 09:29:00,57.3,20.8,30.15,ESE,117,2.0,5.0,24,0.00,,,0.00,Wunderground v.1.15,2013-04-27 15:29:00,
2013-04-27 09:34:00,58.0,20.4,30.13,East,89,1.0,6.0,23,0.00,,,0.00,Wunderground v.1.15,2013-04-27 15:34:00,
2013-04-27 09:39:00,58.1,19.4,30.13,SE,141,3.0,9.0,22,0.00,,,0.00,Wunderground v.1.15,2013-04-27 15:39:00,
2013-04-27 09:44:00,58.1,20.4,30.13,SE,146,5.0,10.0,23,0.00,,,0.00,Wunderground v.1.15,2013-04-27 15:44:00,
2013-04-27 09:49:00,58.1,20.4,30.13,SSE,157,3.0,10.0,23,0.00,,,0.00,Wunderground v.1.15,2013-04-27 15:49:00,
2013-04-27 09:54:00,58.6,20.9,30.13,SSE,153,7.0,10.0,23,0.00,,,0.00,Wunderground v.1.15,2013-04-27 15:54:00,
2013-04-27 09:59:00,58.4,18.6,30.13,SE,128,3.0,11.0,21,0.00,,,0.00,Wunderground v.1.15,2013-04-27 15:59:00,
2013-04-27 10:04:00,58.9,19.0,30.13,SSE,159,2.0,9.0,21,0.00,,,0.00,Wunderground v.1.15,2013-04-27 16:04:00,
2013-04-27 10:09:00,59.8,19.7,30.13,SE,128,3.0,9.0,21,0.00,,,0.00,Wunderground v.1.15,2013-04-27 16:09:00,
2013-04-27 10:14:00,60.5,20.3,30.13,ESE,117,3.0,9.0,21,0.00,,,0.00,Wunderground v.1.15,2013-04-27 16:14:00,
2013-04-27 10:19:00,61.2,20.9,30.12,East,87,5.0,9.0,21,0.00,,,0.00,Wunderground v.1.15,2013-04-27 16:19:00,
2013-04-27 10:24:00,61.3,21.0,30.12,SSE,155,8.0,8.0,21,0.00,,,0.00,Wunderground v.1.15,2013-04-27 16:24:00,
2013-04-27 10:29:00,62.3,20.7,30.12,SE,136,4.0,8.0,20,0.00,,,0.00,Wunderground v.1.15,2013-04-27 16:29:00,
2013-04-27 10:34:00,62.9,20.0,30.11,SE,129,0.0,6.0,19,0.00,,,0.00,Wunderground v.1.15,2013-04-27 16:34:00,
2013-04-27 10:39:00,63.4,20.4,30.11,SSE,162,5.0,7.0,19,0.00,,,0.00,Wunderground v.1.15,2013-04-27 16:39:00,
2013-04-27 10:44:00,63.9,19.5,30.11,SE,128,3.0,7.0,18,0.00,,,0.00,Wunderground v.1.15,2013-04-27 16:44:00,
2013-04-27 10:49:00,64.3,18.5,30.10,SE,145,1.0,7.0,17,0.00,,,0.00,Wunderground v.1.15,2013-04-27 16:49:00,
2013-04-27 10:54:00,65.2,19.2,30.10,SSE,163,2.0,6.0,17,0.00,,,0.00,Wunderground v.1.15,2013-04-27 16:54:00,
2013-04-27 10:59:00,65.6,19.6,30.10,ENE,68,6.0,6.0,17,0.00,,,0.00,Wunderground v.1.15,2013-04-27 16:59:00,
2013-04-27 11:04:00,65.8,18.3,30.09,ESE,121,0.0,7.0,16,0.00,,,0.00,Wunderground v.1.15,2013-04-27 17:04:00,
2013-04-27 11:09:00,66.3,18.7,30.09,SE,143,1.0,7.0,16,0.00,,,0.00,Wunderground v.1.15,2013-04-27 17:09:00,
2013-04-27 11:14:00,66.6,19.0,30.09,SSE,151,3.0,6.0,16,0.00,,,0.00,Wunderground v.1.15,2013-04-27 17:14:00,
2013-04-27 11:19:00,67.1,17.8,30.10,NNE,30,2.0,6.0,15,0.00,,,0.00,Wunderground v.1.15,2013-04-27 17:19:00,
2013-04-27 11:24:00,67.3,18.0,30.10,NE,36,4.0,5.0,15,0.00,,,0.00,Wunderground v.1.15,2013-04-27 17:24:00,
2013-04-27 11:29:00,67.3,18.0,30.10,South,180,1.0,7.0,15,0.00,,,0.00,Wunderground v.1.15,2013-04-27 17:29:00,
2013-04-27 11:34:00,67.6,18.3,30.09,ENE,70,3.0,4.0,15,0.00,,,0.00,Wunderground v.1.15,2013-04-27 17:34:00,
2013-04-27 11:39:00,67.9,15.2,30.09,NNE,24,4.0,6.0,13,0.00,,,0.00,Wunderground v.1.15,2013-04-27 17:39:00,
2013-04-27 11:44:00,68.1,17.0,30.09,East,88,4.0,4.0,14,0.00,,,0.00,Wunderground v.1.15,2013-04-27 17:44:00,
2013-04-27 11:49:00,68.9,16.0,30.08,East,86,0.0,4.0,13,0.00,,,0.00,Wunderground v.1.15,2013-04-27 17:49:00,
2013-04-27 11:54:00,69.4,18.1,30.08,ENE,60,4.0,5.0,14,0.00,,,0.00,Wunderground v.1.15,2013-04-27 17:54:00,
2013-04-27 11:59:00,69.6,18.2,30.08,East,83,0.0,5.0,14,0.00,,,0.00,Wunderground v.1.15,2013-04-27 17:59:00,
2013-04-27 12:04:00,69.8,16.7,30.07,ENE,71,3.0,6.0,13,0.00,,,0.00,Wunderground v.1.15,2013-04-27 18:04:00,
2013-04-27 12:09:00,69.8,16.7,30.07,ESE,113,0.0,7.0,13,0.00,,,0.00,Wunderground v.1.15,2013-04-27 18:09:00,
2013-04-27 12:14:00,70.3,17.1,30.07,ESE,113,0.0,2.0,13,0.00,,,0.00,Wunderground v.1.15,2013-04-27 18:14:00,
2013-04-27 12:19:00,70.6,17.3,30.07,ESE,107,0.0,2.0,13,0.00,,,0.00,Wunderground v.1.15,2013-04-27 18:19:00,
2013-04-27 12:24:00,70.9,17.5,30.07,ESE,104,0.0,4.0,13,0.00,,,0.00,Wunderground v.1.15,2013-04-27 18:24:00,
2013-04-27 12:30:00,70.9,15.7,30.07,ESE,104,0.0,4.0,12,0.00,,,0.00,Wunderground v.1.15,2013-04-27 18:30:00,
2013-04-27 12:35:00,71.6,18.1,30.06,ESE,103,1.0,3.0,13,0.00,,,0.00,Wunderground v.1.15,2013-04-27 18:35:00,
2013-04-27 12:40:00,72.3,16.8,30.06,ESE,103,0.0,3.0,12,0.00,,,0.00,Wunderground v.1.15,2013-04-27 18:40:00,
2013-04-27 12:44:00,72.1,16.6,30.06,East,82,6.0,6.0,12,0.00,,,0.00,Wunderground v.1.15,2013-04-27 18:44:00,
2013-04-27 12:50:00,72.0,16.6,30.06,ESE,115,2.0,7.0,12,0.00,,,0.00,Wunderground v.1.15,2013-04-27 18:50:00,
2013-04-27 12:55:00,72.8,19.0,30.06,ESE,115,2.0,4.0,13,0.00,,,0.00,Wunderground v.1.15,2013-04-27 18:55:00,
2013-04-27 13:00:00,73.3,17.6,30.06,SE,137,3.0,4.0,12,0.00,,,0.00,Wunderground v.1.15,2013-04-27 19:00:00,
2013-04-27 13:05:00,73.3,15.6,30.04,SW,228,4.0,5.0,11,0.00,,,0.00,Wunderground v.1.15,2013-04-27 19:05:00,
2013-04-27 13:10:00,73.2,15.5,30.04,North,349,1.0,3.0,11,0.00,,,0.00,Wunderground v.1.15,2013-04-27 19:10:00,
2013-04-27 13:15:00,73.0,17.3,30.04,North,360,0.0,5.0,12,0.00,,,0.00,Wunderground v.1.15,2013-04-27 19:15:00,
2013-04-27 13:20:00,72.8,17.2,30.04,NW,305,7.0,7.0,12,0.00,,,0.00,Wunderground v.1.15,2013-04-27 19:20:00,
2013-04-27 13:25:00,73.5,15.7,30.04,NNW,333,6.0,13.0,11,0.00,,,0.00,Wunderground v.1.15,2013-04-27 19:25:00,
2013-04-27 13:30:00,73.5,15.7,30.04,SW,223,5.0,6.0,11,0.00,,,0.00,Wunderground v.1.15,2013-04-27 19:30:00,
2013-04-27 13:35:00,74.0,16.1,30.02,NW,321,2.0,14.0,11,0.00,,,0.00,Wunderground v.1.15,2013-04-27 19:35:00,
2013-04-27 13:40:00,74.2,16.3,30.02,WNW,293,1.0,5.0,11,0.00,,,0.00,Wunderground v.1.15,2013-04-27 19:40:00,
2013-04-27 13:45:00,74.4,16.4,30.02,WSW,248,4.0,7.0,11,0.00,,,0.00,Wunderground v.1.15,2013-04-27 19:45:00,
2013-04-27 13:50:00,75.3,14.9,30.00,WNW,296,1.0,3.0,10,0.00,,,0.00,Wunderground v.1.15,2013-04-27 19:50:00,
2013-04-27 13:55:00,75.4,12.6,30.00,WNW,302,0.0,9.0,9,0.00,,,0.00,Wunderground v.1.15,2013-04-27 19:55:00,
2013-04-27 14:00:00,75.1,14.8,30.00,NW,319,7.0,8.0,10,0.00,,,0.00,Wunderground v.1.15,2013-04-27 20:00:00,
2013-04-27 14:05:00,75.6,12.7,30.00,West,277,1.0,11.0,9,0.00,,,0.00,Wunderground v.1.15,2013-04-27 20:05:00,
2013-04-27 14:10:00,76.0,13.0,30.00,WSW,250,7.0,9.0,9,0.00,,,0.00,Wunderground v.1.15,2013-04-27 20:10:00,
2013-04-27 14:15:00,75.8,12.9,30.00,SW,219,2.0,12.0,9,0.00,,,0.00,Wunderground v.1.15,2013-04-27 20:15:00,
2013-04-27 14:20:00,76.0,13.0,30.00,SW,232,2.0,5.0,9,0.00,,,0.00,Wunderground v.1.15,2013-04-27 20:20:00,
2013-04-27 14:25:00,75.8,10.2,30.00,SSE,163,4.0,9.0,8,0.00,,,0.00,Wunderground v.1.15,2013-04-27 20:25:00,
2013-04-27 14:30:00,75.6,12.7,30.00,NNW,333,7.0,7.0,9,0.00,,,0.00,Wunderground v.1.15,2013-04-27 20:30:00,
2013-04-27 14:35:00,76.0,15.4,29.99,NNW,344,14.0,14.0,10,0.00,,,0.00,Wunderground v.1.15,2013-04-27 20:35:00,
2013-04-27 14:40:00,75.8,15.3,29.99,WNW,284,4.0,8.0,10,0.00,,,0.00,Wunderground v.1.15,2013-04-27 20:40:00,
2013-04-27 14:45:00,75.3,12.5,29.99,ENE,71,1.0,14.0,9,0.00,,,0.00,Wunderground v.1.15,2013-04-27 20:45:00,
2013-04-27 14:50:00,74.7,14.5,29.98,WNW,297,9.0,10.0,10,0.00,,,0.00,Wunderground v.1.15,2013-04-27 20:50:00,
2013-04-27 14:55:00,75.3,14.9,29.98,WNW,302,2.0,12.0,10,0.00,,,0.00,Wunderground v.1.15,2013-04-27 20:55:00,
2013-04-27 15:00:00,75.6,15.1,29.98,NNW,338,1.0,6.0,10,0.00,,,0.00,Wunderground v.1.15,2013-04-27 21:00:00,
2013-04-27 15:05:00,76.1,17.7,29.98,West,268,0.0,9.0,11,0.00,,,0.00,Wunderground v.1.15,2013-04-27 21:05:00,
2013-04-27 15:10:00,76.0,15.4,29.98,NW,322,3.0,9.0,10,0.00,,,0.00,Wunderground v.1.15,2013-04-27 21:10:00,
2013-04-27 15:15:00,76.3,13.3,29.98,NNW,336,1.0,9.0,9,0.00,,,0.00,Wunderground v.1.15,2013-04-27 21:15:00,
2013-04-27 15:20:00,76.5,13.4,29.93,NW,304,2.0,4.0,9,0.00,,,0.00,Wunderground v.1.15,2013-04-27 21:20:00,
2013-04-27 15:25:00,76.8,13.6,29.93,NNW,330,4.0,10.0,9,0.00,,,0.00,Wunderground v.1.15,2013-04-27 21:25:00,
2013-04-27 15:30:00,76.3,15.7,29.93,NW,325,2.0,4.0,10,0.00,,,0.00,Wunderground v.1.15,2013-04-27 21:30:00,
2013-04-27 15:35:00,75.8,12.9,29.93,North,11,4.0,8.0,9,0.00,,,0.00,Wunderground v.1.15,2013-04-27 21:35:00,
2013-04-27 15:40:00,75.8,17.5,29.93,WNW,295,6.0,9.0,11,0.00,,,0.00,Wunderground v.1.15,2013-04-27 21:40:00,
2013-04-27 15:45:00,76.8,16.1,29.93,NW,304,5.0,11.0,10,0.00,,,0.00,Wunderground v.1.15,2013-04-27 21:45:00,
2013-04-27 15:50:00,77.6,16.7,29.92,NNW,342,3.0,7.0,10,0.00,,,0.00,Wunderground v.1.15,2013-04-27 21:50:00,
2013-04-27 15:55:00,77.6,16.7,29.92,NW,319,1.0,7.0,10,0.00,,,0.00,Wunderground v.1.15,2013-04-27 21:55:00,
2013-04-27 16:00:00,77.2,13.9,29.92,SSW,207,4.0,4.0,9,0.00,,,0.00,Wunderground v.1.15,2013-04-27 22:00:00,
2013-04-27 16:05:00,77.0,13.8,29.91,SSW,205,2.0,5.0,9,0.00,,,0.00,Wunderground v.1.15,2013-04-27 22:05:00,
2013-04-27 16:10:00,77.4,14.1,29.91,NW,323,6.0,7.0,9,0.00,,,0.00,Wunderground v.1.15,2013-04-27 22:10:00,
2013-04-27 16:15:00,77.6,14.2,29.91,NNW,348,2.0,9.0,9,0.00,,,0.00,Wunderground v.1.15,2013-04-27 22:15:00,
2013-04-27 16:20:00,77.2,13.9,29.85,WNW,300,0.0,4.0,9,0.00,,,0.00,Wunderground v.1.15,2013-04-27 22:20:00,
2013-04-27 16:25:00,77.2,13.9,29.85,NNW,344,5.0,9.0,9,0.00,,,0.00,Wunderground v.1.15,2013-04-27 22:25:00,
2013-04-27 16:30:00,76.7,13.6,29.85,NNW,340,9.0,12.0,9,0.00,,,0.00,Wunderground v.1.15,2013-04-27 22:30:00,
2013-04-27 16:35:00,76.5,15.8,29.84,NNW,342,7.0,12.0,10,0.00,,,0.00,Wunderground v.1.15,2013-04-27 22:35:00,
2013-04-27 16:40:00,77.0,13.8,29.84,NNW,328,6.0,7.0,9,0.00,,,0.00,Wunderground v.1.15,2013-04-27 22:40:00,
2013-04-27 16:45:00,76.7,13.6,29.84,NNW,346,4.0,8.0,9,0.00,,,0.00,Wunderground v.1.15,2013-04-27 22:45:00,
2013-04-27 16:50:00,76.3,15.7,29.85,NNE,13,0.0,4.0,10,0.00,,,0.00,Wunderground v.1.15,2013-04-27 22:50:00,
2013-04-27 16:55:00,76.1,13.1,29.85,NNE,24,3.0,7.0,9,0.00,,,0.00,Wunderground v.1.15,2013-04-27 22:55:00,
2013-04-27 17:00:00,76.3,15.7,29.85,WNW,295,3.0,5.0,10,0.00,,,0.00,Wunderground v.1.15,2013-04-27 23:00:00,
2013-04-27 17:05:00,76.8,13.6,29.83,NW,324,2.0,6.0,9,0.00,,,0.00,Wunderground v.1.15,2013-04-27 23:05:00,
2013-04-27 17:10:00,76.5,13.4,29.83,NNW,339,4.0,5.0,9,0.00,,,0.00,Wunderground v.1.15,2013-04-27 23:10:00,
2013-04-27 17:15:00,76.7,13.6,29.83,WNW,283,4.0,7.0,9,0.00,,,0.00,Wunderground v.1.15,2013-04-27 23:15:00,
2013-04-27 17:21:00,76.8,13.6,29.84,NW,310,3.0,4.0,9,0.00,,,0.00,Wunderground v.1.15,2013-04-27 23:21:00,
2013-04-27 17:25:00,77.0,13.8,29.84,NW,323,3.0,6.0,9,0.00,,,0.00,Wunderground v.1.15,2013-04-27 23:25:00,
2013-04-27 17:30:00,77.4,14.1,29.84,NW,313,3.0,3.0,9,0.00,,,0.00,Wunderground v.1.15,2013-04-27 23:30:00,
2013-04-27 17:35:00,77.9,11.8,29.83,WNW,298,4.0,7.0,8,0.00,,,0.00,Wunderground v.1.15,2013-04-27 23:35:00,
2013-04-27 17:41:00,78.1,11.9,29.83,NNW,330,1.0,4.0,8,0.00,,,0.00,Wunderground v.1.15,2013-04-27 23:41:00,
2013-04-27 17:46:00,77.7,16.7,29.83,NNW,329,1.0,4.0,10,0.00,,,0.00,Wunderground v.1.15,2013-04-27 23:46:00,
2013-04-27 17:51:00,77.9,14.5,29.83,NW,325,1.0,4.0,9,0.00,,,0.00,Wunderground v.1.15,2013-04-27 23:51:00,
2013-04-27 17:56:00,77.9,11.8,29.83,NW,325,2.0,5.0,8,0.00,,,0.00,Wunderground v.1.15,2013-04-27 23:56:00,
2013-04-27 18:01:00,77.4,14.1,29.83,NW,321,3.0,5.0,9,0.00,,,0.00,Wunderground v.1.15,2013-04-28 00:01:00,
2013-04-27 18:06:00,77.2,11.3,29.84,WSW,244,3.0,9.0,8,0.00,,,0.00,Wunderground v.1.15,2013-04-28 00:06:00,
2013-04-27 18:11:00,77.6,11.6,29.84,West,267,1.0,3.0,8,0.00,,,0.00,Wunderground v.1.15,2013-04-28 00:11:00,
2013-04-27 18:16:00,77.9,14.5,29.84,NW,308,3.0,5.0,9,0.00,,,0.00,Wunderground v.1.15,2013-04-28 00:16:00,
2013-04-27 18:21:00,78.1,11.9,29.85,NW,305,4.0,5.0,8,0.00,,,0.00,Wunderground v.1.15,2013-04-28 00:21:00,
2013-04-27 18:26:00,78.1,11.9,29.85,NW,306,3.0,5.0,8,0.00,,,0.00,Wunderground v.1.15,2013-04-28 00:26:00,
2013-04-27 18:31:00,77.7,11.6,29.85,NW,306,0.0,3.0,8,0.00,,,0.00,Wunderground v.1.15,2013-04-28 00:31:00,
2013-04-27 18:36:00,77.7,16.7,29.84,NW,307,4.0,5.0,10,0.00,,,0.00,Wunderground v.1.15,2013-04-28 00:36:00,
2013-04-27 18:41:00,77.7,14.3,29.84,NW,307,2.0,2.0,9,0.00,,,0.00,Wunderground v.1.15,2013-04-28 00:41:00,
2013-04-27 18:46:00,77.6,14.2,29.84,NW,308,2.0,6.0,9,0.00,,,0.00,Wunderground v.1.15,2013-04-28 00:46:00,
2013-04-27 18:51:00,77.0,13.8,29.84,NW,307,1.0,3.0,9,0.00,,,0.00,Wunderground v.1.15,2013-04-28 00:51:00,
2013-04-27 18:56:00,76.8,13.6,29.84,NW,307,1.0,6.0,9,0.00,,,0.00,Wunderground v.1.15,2013-04-28 00:56:00,
2013-04-27 19:01:00,76.5,13.4,29.84,NW,307,1.0,2.0,9,0.00,,,0.00,Wunderground v.1.15,2013-04-28 01:01:00,
2013-04-27 19:06:00,76.1,15.5,29.84,NW,307,0.0,2.0,10,0.00,,,0.00,Wunderground v.1.15,2013-04-28 01:06:00,
2013-04-27 19:11:00,76.1,15.5,29.84,NW,307,0.0,1.0,10,0.00,,,0.00,Wunderground v.1.15,2013-04-28 01:11:00,
2013-04-27 19:16:00,76.0,15.4,29.84,NW,307,0.0,2.0,10,0.00,,,0.00,Wunderground v.1.15,2013-04-28 01:16:00,
2013-04-27 19:21:00,75.6,15.1,29.82,NW,307,1.0,2.0,10,0.00,,,0.00,Wunderground v.1.15,2013-04-28 01:21:00,
2013-04-27 19:26:00,74.9,14.6,29.82,NW,307,0.0,2.0,10,0.00,,,0.00,Wunderground v.1.15,2013-04-28 01:26:00,
2013-04-27 19:31:00,73.7,13.7,29.82,NW,307,0.0,1.0,10,0.00,,,0.00,Wunderground v.1.15,2013-04-28 01:31:00,
2013-04-27 19:36:00,72.1,16.6,29.83,NW,307,0.0,1.0,12,0.00,,,0.00,Wunderground v.1.15,2013-04-28 01:36:00,
2013-04-27 19:41:00,69.6,19.9,29.83,NW,307,0.0,0.0,15,0.00,,,0.00,Wunderground v.1.15,2013-04-28 01:41:00,
2013-04-27 19:46:00,67.4,22.4,29.83,NW,307,0.0,0.0,18,0.00,,,0.00,Wunderground v.1.15,2013-04-28 01:46:00,
2013-04-27 19:51:00,65.5,20.8,29.86,NW,307,0.0,0.0,18,0.00,,,0.00,Wunderground v.1.15,2013-04-28 01:51:00,
2013-04-27 19:56:00,63.1,18.9,29.86,NW,307,0.0,0.0,18,0.00,,,0.00,Wunderground v.1.15,2013-04-28 01:56:00,
2013-04-27 20:01:00,61.3,21.0,29.86,NW,307,0.0,0.0,21,0.00,,,0.00,Wunderground v.1.15,2013-04-28 02:01:00,
2013-04-27 20:06:00,59.6,19.6,29.89,NW,307,0.0,0.0,21,0.00,,,0.00,Wunderground v.1.15,2013-04-28 02:06:00,
2013-04-27 20:11:00,58.3,19.6,29.89,NW,307,0.0,0.0,22,0.00,,,0.00,Wunderground v.1.15,2013-04-28 02:11:00,
2013-04-27 20:16:00,56.9,20.4,29.89,NW,307,0.0,0.0,24,0.00,,,0.00,Wunderground v.1.15,2013-04-28 02:16:00,
2013-04-27 20:21:00,55.6,21.2,29.88,NW,307,0.0,0.0,26,0.00,,,0.00,Wunderground v.1.15,2013-04-28 02:21:00,
2013-04-27 20:26:00,54.4,20.2,29.88,NW,307,0.0,0.0,26,0.00,,,0.00,Wunderground v.1.15,2013-04-28 02:26:00,
2013-04-27 20:31:00,53.8,21.4,29.88,NW,307,0.0,0.0,28,0.00,,,0.00,Wunderground v.1.15,2013-04-28 02:31:00,
2013-04-27 20:36:00,53.5,21.2,29.89,NW,307,0.0,0.0,28,0.00,,,0.00,Wunderground v.1.15,2013-04-28 02:36:00,
2013-04-27 20:41:00,52.8,20.5,29.89,NW,307,0.0,0.0,28,0.00,,,0.00,Wunderground v.1.15,2013-04-28 02:41:00,
2013-04-27 20:46:00,52.5,20.3,29.89,NW,307,0.0,0.0,28,0.00,,,0.00,Wunderground v.1.15,2013-04-28 02:46:00,
2013-04-27 20:51:00,52.6,21.2,29.90,NW,307,0.0,0.0,29,0.00,,,0.00,Wunderground v.1.15,2013-04-28 02:51:00,
2013-04-27 20:56:00,53.2,20.0,29.90,NW,307,0.0,0.0,27,0.00,,,0.00,Wunderground v.1.15,2013-04-28 02:56:00,
2013-04-27 21:01:00,53.9,21.5,29.90,NW,307,0.0,0.0,28,0.00,,,0.00,Wunderground v.1.15,2013-04-28 03:01:00,
2013-04-27 21:06:00,54.2,20.0,29.90,NW,307,0.0,0.0,26,0.00,,,0.00,Wunderground v.1.15,2013-04-28 03:06:00,
2013-04-27 21:11:00,55.3,20.0,29.90,NNE,18,0.0,1.0,25,0.00,,,0.00,Wunderground v.1.15,2013-04-28 03:11:00,
2013-04-27 21:16:00,57.3,20.8,29.90,NNE,18,0.0,1.0,24,0.00,,,0.00,Wunderground v.1.15,2013-04-28 03:16:00,
2013-04-27 21:21:00,57.8,20.2,29.88,NNE,18,3.0,3.0,23,0.00,,,0.00,Wunderground v.1.15,2013-04-28 03:21:00,
2013-04-27 21:26:00,60.5,20.3,29.88,NNE,22,1.0,5.0,21,0.00,,,0.00,Wunderground v.1.15,2013-04-28 03:26:00,
2013-04-27 21:31:00,60.1,21.1,29.88,NNE,22,0.0,2.0,22,0.00,,,0.00,Wunderground v.1.15,2013-04-28 03:31:00,
2013-04-27 21:36:00,57.8,22.2,29.87,NNE,22,0.0,2.0,25,0.00,,,0.00,Wunderground v.1.15,2013-04-28 03:36:00,
2013-04-27 21:41:00,55.9,23.2,29.87,NNE,22,0.0,0.0,28,0.00,,,0.00,Wunderground v.1.15,2013-04-28 03:41:00,
2013-04-27 21:46:00,55.7,21.3,29.87,NNE,22,1.0,1.0,26,0.00,,,0.00,Wunderground v.1.15,2013-04-28 03:46:00,
2013-04-27 21:51:00,54.5,22.9,29.89,NNE,22,0.0,1.0,29,0.00,,,0.00,Wunderground v.1.15,2013-04-28 03:51:00,
2013-04-27 21:56:00,54.2,20.9,29.89,NNE,22,1.0,1.0,27,0.00,,,0.00,Wunderground v.1.15,2013-04-28 03:56:00,
2013-04-27 22:01:00,54.1,21.7,29.89,NNE,22,0.0,0.0,28,0.00,,,0.00,Wunderground v.1.15,2013-04-28 04:01:00,
2013-04-27 22:06:00,52.9,22.3,29.90,NNE,22,0.0,2.0,30,0.00,,,0.00,Wunderground v.1.15,2013-04-28 04:06:00,
2013-04-27 22:11:00,52.6,22.8,29.90,NNE,22,0.0,0.0,31,0.00,,,0.00,Wunderground v.1.15,2013-04-28 04:11:00,
2013-04-27 22:16:00,52.0,23.8,29.90,NNE,22,0.0,1.0,33,0.00,,,0.00,Wunderground v.1.15,2013-04-28 04:16:00,
2013-04-27 22:21:00,50.8,24.8,29.88,NNE,22,0.0,2.0,36,0.00,,,0.00,Wunderground v.1.15,2013-04-28 04:21:00,
2013-04-27 22:26:00,49.5,26.1,29.88,NNE,22,0.0,2.0,40,0.00,,,0.00,Wunderground v.1.15,2013-04-28 04:26:00,
2013-04-27 22:31:00,48.6,22.8,29.88,NNE,22,0.0,0.0,36,0.00,,,0.00,Wunderground v.1.15,2013-04-28 04:31:00,
2013-04-27 22:36:00,47.3,22.9,29.90,NNE,22,0.0,0.0,38,0.00,,,0.00,Wunderground v.1.15,2013-04-28 04:36:00,
2013-04-27 22:41:00,46.4,23.9,29.90,NNE,22,0.0,0.0,41,0.00,,,0.00,Wunderground v.1.15,2013-04-28 04:41:00,
2013-04-27 22:46:00,46.2,23.8,29.90,NNE,22,0.0,0.0,41,0.00,,,0.00,Wunderground v.1.15,2013-04-28 04:46:00,
2013-04-27 22:51:00,45.7,23.9,29.91,NNE,22,0.0,0.0,42,0.00,,,0.00,Wunderground v.1.15,2013-04-28 04:51:00,
2013-04-27 22:56:00,45.4,25.8,29.91,NNE,22,0.0,0.0,46,0.00,,,0.00,Wunderground v.1.15,2013-04-28 04:56:00,
2013-04-27 23:01:00,45.1,26.1,29.91,NNE,22,0.0,0.0,47,0.00,,,0.00,Wunderground v.1.15,2013-04-28 05:01:00,
2013-04-27 23:06:00,45.4,24.7,29.92,NNE,22,0.0,0.0,44,0.00,,,0.00,Wunderground v.1.15,2013-04-28 05:06:00,
2013-04-27 23:11:00,44.9,25.3,29.92,NNE,22,0.0,0.0,46,0.00,,,0.00,Wunderground v.1.15,2013-04-28 05:11:00,
2013-04-27 23:16:00,44.2,23.6,29.92,NNE,22,0.0,0.0,44,0.00,,,0.00,Wunderground v.1.15,2013-04-28 05:16:00,
2013-04-27 23:21:00,43.9,23.4,29.90,NNE,22,0.0,0.0,44,0.00,,,0.00,Wunderground v.1.15,2013-04-28 05:21:00,
2013-04-27 23:26:00,43.6,24.7,29.90,NNE,22,0.0,0.0,47,0.00,,,0.00,Wunderground v.1.15,2013-04-28 05:26:00,
2013-04-27 23:31:00,43.3,25.9,29.90,NNE,22,0.0,0.0,50,0.00,,,0.00,Wunderground v.1.15,2013-04-28 05:31:00,
2013-04-27 23:37:00,42.9,23.5,29.91,NNE,22,0.0,0.0,46,0.00,,,0.00,Wunderground v.1.15,2013-04-28 05:37:00,
2013-04-27 23:42:00,42.5,23.2,29.91,NNE,22,0.0,0.0,46,0.00,,,0.00,Wunderground v.1.15,2013-04-28 05:42:00,
2013-04-27 23:47:00,42.2,22.9,29.91,NNE,22,0.0,0.0,46,0.00,,,0.00,Wunderground v.1.15,2013-04-28 05:47:00,
2013-04-27 23:52:00,42.1,23.3,29.91,NNE,22,0.0,0.0,47,0.00,,,0.00,Wunderground v.1.15,2013-04-28 05:52:00,
2013-04-27 23:57:00,42.1,22.3,29.91,NNE,22,0.0,0.0,45,0.00,,,0.00,Wunderground v.1.15,2013-04-28 05:57:00,